Time;durP1;ratioP1;P1;durP2;ratioP2;P2;SDS_P1;SDS_P2;PMS_P1;PMS_P2;Temp;Humidity;BMP_temperature;BMP_pressure;BME280_temperature;BME280_humidity;BME280_pressure;Samples;Min_cycle;Max_cycle;Signal;HPM_P1;HPM_P2
2022/04/03 00:02:12;;;;;;;;;;;;;;;1.17;100.00;101815.81;5117775;27;19919;-77
2022/04/03 00:04:39;;;;;;;;;;;;;;;1.16;100.00;101813.09;5117608;27;20059;-77
2022/04/03 00:07:05;;;;;;;;;;;;;;;1.07;100.00;101824.47;5117945;27;20293;-77
2022/04/03 00:09:30;;;;;;;;;;;;;;;1.18;100.00;101793.38;5117522;27;19915;-78
2022/04/03 00:11:55;;;;;;;;;;;;;;;1.18;100.00;101798.56;5117238;27;19968;-78
2022/04/03 00:14:21;;;;;;;;;;;;;;;1.15;100.00;101799.22;5135971;27;20040;-77
2022/04/03 00:16:47;;;;;;;;;;;;;;;1.07;100.00;101800.19;5117858;27;20010;-77
2022/04/03 00:19:12;;;;;;;;;;;;;;;1.07;100.00;101798.53;5117111;27;19957;-77
2022/04/03 00:21:37;;;;;;;;;;;;;;;1.03;100.00;101796.44;5117746;27;19927;-78
2022/04/03 00:24:03;;;;;;;;;;;;;;;1.02;100.00;101780.72;5116577;27;19916;-78
2022/04/03 00:26:28;;;;;;;;;;;;;;;0.95;100.00;101780.94;5117551;27;19927;-78
2022/04/03 00:28:54;;;;;;;;;;;;;;;0.87;100.00;101777.66;5116654;27;19916;-77
2022/04/03 00:31:19;;;;;;;;;;;;;;;0.83;100.00;101760.03;5133407;27;19916;-77
2022/04/03 00:33:47;;;;;;;;;;;;;;;0.74;100.00;101754.91;5116274;27;19919;-77
2022/04/03 00:36:12;;;;;;;;;;;;;;;0.68;100.00;101736.22;5117001;27;19916;-77
2022/04/03 00:38:37;;;;;;;;;;;;;;;0.63;100.00;101724.53;5134828;27;19919;-78
2022/04/03 00:41:03;;;;;;;;;;;;;;;0.59;100.00;101704.28;5116780;27;19915;-77
2022/04/03 00:43:31;;;;;;;;;;;;;;;0.53;100.00;101661.50;5116904;27;19920;-77
2022/04/03 00:45:59;;;;;;;;;;;;;;;0.49;100.00;101635.19;5116734;27;19919;-77
2022/04/03 00:48:24;;;;;;;;;;;;;;;0.44;100.00;101618.31;5116814;27;19916;-77
2022/04/03 00:50:51;;;;;;;;;;;;;;;0.40;100.00;101595.50;5135299;27;19923;-77
2022/04/03 00:53:17;;;;;;;;;;;;;;;0.35;100.00;101580.44;5116696;27;19998;-78
2022/04/03 00:55:43;;;;;;;;;;;;;;;0.30;100.00;101534.19;5117104;27;19922;-77
2022/04/03 00:58:09;;;;;;;;;;;;;;;0.19;100.00;101463.31;5116433;27;19923;-77
2022/04/03 01:00:35;;;;;;;;;;;;;;;0.18;100.00;101418.34;5117006;27;19955;-77
2022/04/03 01:03:02;;;;;;;;;;;;;;;0.08;100.00;101402.81;5116268;27;19964;-77
2022/04/03 01:05:27;;;;;;;;;;;;;;;-0.07;100.00;101371.28;5116914;27;19938;-77
2022/04/03 01:07:52;;;;;;;;;;;;;;;-0.11;100.00;101350.19;5115796;27;20640;-78
2022/04/03 01:10:18;;;;;;;;;;;;;;;-0.16;100.00;101329.06;5116758;27;19998;-77
2022/04/03 01:12:46;;;;;;;;;;;;;;;-0.25;100.00;101310.16;5116373;27;19951;-78
2022/04/03 01:15:16;;;;;;;;;;;;;;;-0.32;100.00;101288.03;5115913;27;19921;-77
2022/04/03 01:17:42;;;;;;;;;;;;;;;-0.40;100.00;101258.91;5115758;27;19927;-76
2022/04/03 01:20:08;;;;;;;;;;;;;;;-0.43;100.00;101249.97;5116019;27;19915;-77
2022/04/03 01:22:33;;;;;;;;;;;;;;;-0.48;100.00;101238.31;5115814;27;20401;-77
2022/04/03 01:24:59;;;;;;;;;;;;;;;-0.57;100.00;101226.41;5116222;27;19915;-78
2022/04/03 01:27:24;;;;;;;;;;;;;;;-0.59;100.00;101214.09;5134396;27;20001;-77
2022/04/03 01:29:52;;;;;;;;;;;;;;;-0.65;100.00;101192.88;5116281;27;20362;-74
2022/04/03 01:32:17;;;;;;;;;;;;;;;-0.70;100.00;101168.31;5099264;27;19958;-75
2022/04/03 01:34:44;;;;;;;;;;;;;;;-0.74;100.00;101141.28;5098898;27;19991;-76
2022/04/03 01:37:09;;;;;;;;;;;;;;;-0.77;100.00;101109.97;5116067;27;19930;-77
2022/04/03 01:39:34;;;;;;;;;;;;;;;-0.79;100.00;101088.28;5115810;27;19919;-77
2022/04/03 01:42:01;;;;;;;;;;;;;;;-0.83;100.00;101055.16;5115720;27;19915;-78
2022/04/03 01:44:26;;;;;;;;;;;;;;;-0.85;100.00;100984.31;5116327;27;20450;-77
2022/04/03 01:46:51;;;;;;;;;;;;;;;-0.88;100.00;100940.13;5115264;27;19922;-78
2022/04/03 01:49:17;;;;;;;;;;;;;;;-0.95;100.00;100907.66;5115552;28;19915;-79
2022/04/03 01:51:42;;;;;;;;;;;;;;;-0.98;100.00;100872.16;5114839;28;19915;-76
2022/04/03 01:54:07;;;;;;;;;;;;;;;-1.02;100.00;100840.75;5115333;27;19930;-75
2022/04/03 01:56:34;;;;;;;;;;;;;;;-1.06;100.00;100795.63;5116118;28;20436;-77
2022/04/03 01:59:00;;;;;;;;;;;;;;;-1.05;100.00;100773.28;5115532;28;19951;-76
2022/04/03 02:01:25;;;;;;;;;;;;;;;-1.07;100.00;100749.91;5098978;28;19923;-76
2022/04/03 02:03:51;;;;;;;;;;;;;;;-1.11;100.00;100729.75;5115065;28;19983;-76
2022/04/03 02:06:17;;;;;;;;;;;;;;;-1.09;100.00;100682.59;5113554;28;19923;-76
2022/04/03 02:08:43;;;;;;;;;;;;;;;-1.13;100.00;100665.03;5115947;28;19915;-76
2022/04/03 02:11:08;;;;;;;;;;;;;;;-1.17;100.00;100646.56;5115506;28;19923;-76
2022/04/03 02:13:33;;;;;;;;;;;;;;;-1.23;100.00;100631.47;5095341;28;19927;-76
2022/04/03 02:15:58;;;;;;;;;;;;;;;-1.25;100.00;100620.13;5095179;28;20437;-76
2022/04/03 02:18:24;;;;;;;;;;;;;;;-1.28;100.00;100601.81;5109526;28;19916;-76
2022/04/03 02:20:49;;;;;;;;;;;;;;;-1.30;100.00;100577.53;5133954;28;19919;-76
2022/04/03 02:23:16;;;;;;;;;;;;;;;-1.36;100.00;100567.59;5098542;28;20256;-76
2022/04/03 02:25:41;;;;;;;;;;;;;;;-1.39;100.00;100538.94;5116136;28;20528;-76
2022/04/03 02:28:09;;;;;;;;;;;;;;;-1.43;100.00;100523.97;5115517;28;19962;-76
2022/04/03 02:30:34;;;;;;;;;;;;;;;-1.46;100.00;100498.84;5099129;28;19949;-76
2022/04/03 02:33:02;;;;;;;;;;;;;;;-1.43;100.00;100479.19;5115047;28;19931;-76
2022/04/03 02:35:27;;;;;;;;;;;;;;;-1.45;100.00;100454.13;5115254;28;20282;-76
2022/04/03 02:37:53;;;;;;;;;;;;;;;-1.44;100.00;100436.97;5114299;28;19916;-76
2022/04/03 02:40:18;;;;;;;;;;;;;;;-1.47;100.00;100429.88;5114630;28;19924;-77
2022/04/03 02:42:45;;;;;;;;;;;;;;;-1.48;100.00;100402.25;5096784;28;19976;-77
2022/04/03 02:45:10;;;;;;;;;;;;;;;-1.50;100.00;100378.00;5115680;28;20052;-77
2022/04/03 02:47:36;;;;;;;;;;;;;;;-1.52;100.00;100366.66;5115475;28;19957;-77
2022/04/03 02:50:02;;;;;;;;;;;;;;;-1.52;100.00;100356.31;5115315;28;20205;-77
2022/04/03 02:52:27;;;;;;;;;;;;;;;-1.54;100.00;100331.16;5133919;28;19919;-77
2022/04/03 02:54:53;;;;;;;;;;;;;;;-1.54;100.00;100337.25;5115383;28;20289;-77
2022/04/03 02:57:18;;;;;;;;;;;;;;;-1.59;100.00;100325.66;5115734;28;19927;-77
2022/04/03 02:59:44;;;;;;;;;;;;;;;-1.61;100.00;100309.16;5115587;28;20363;-78
2022/04/03 03:02:10;;;;;;;;;;;;;;;-1.62;100.00;100315.09;5111456;28;19920;-77
2022/04/03 03:04:37;;;;;;;;;;;;;;;-1.61;100.00;100318.59;5098471;28;19915;-78
2022/04/03 03:07:03;;;;;;;;;;;;;;;-1.62;100.00;100322.81;5116651;27;19919;-78
2022/04/03 03:09:29;;;;;;;;;;;;;;;-1.60;100.00;100331.63;5119136;27;20585;-78
2022/04/03 03:11:54;;;;;;;;;;;;;;;-1.61;100.00;100341.81;5119027;27;20015;-78
2022/04/03 03:14:21;;;;;;;;;;;;;;;-1.67;100.00;100378.38;5118560;27;19922;-79
2022/04/03 03:16:47;;;;;;;;;;;;;;;-1.71;100.00;100371.19;5118645;27;20398;-78
2022/04/03 03:19:12;;;;;;;;;;;;;;;-1.73;100.00;100355.56;5118349;27;19911;-78
2022/04/03 03:21:37;;;;;;;;;;;;;;;-1.73;100.00;100358.16;5101690;27;19971;-78
2022/04/03 03:24:04;;;;;;;;;;;;;;;-1.73;100.00;100339.19;5118019;27;19938;-78
2022/04/03 03:26:30;;;;;;;;;;;;;;;-1.73;100.00;100341.78;5118437;27;19916;-77
2022/04/03 03:28:57;;;;;;;;;;;;;;;-1.64;100.00;100317.56;5136816;27;19915;-78
2022/04/03 03:31:22;;;;;;;;;;;;;;;-1.61;100.00;100301.41;5102106;27;20006;-78
2022/04/03 03:33:50;;;;;;;;;;;;;;;-1.60;100.00;100286.81;5101674;27;19959;-78
2022/04/03 03:36:16;;;;;;;;;;;;;;;-1.64;100.00;100280.53;5118366;27;19988;-79
2022/04/03 03:38:43;;;;;;;;;;;;;;;-1.65;100.00;100268.38;5136569;27;20411;-79
2022/04/03 03:41:09;;;;;;;;;;;;;;;-1.66;100.00;100272.66;5115980;27;19923;-77
2022/04/03 03:43:37;;;;;;;;;;;;;;;-1.71;100.00;100275.66;5118207;27;19962;-78
2022/04/03 03:46:02;;;;;;;;;;;;;;;-1.73;100.00;100291.03;5118135;27;19965;-78
2022/04/03 03:48:28;;;;;;;;;;;;;;;-1.79;100.00;100295.72;5118094;27;19923;-78
2022/04/03 03:50:53;;;;;;;;;;;;;;;-1.83;100.00;100302.34;5117692;27;19923;-78
2022/04/03 03:53:20;;;;;;;;;;;;;;;-1.81;100.00;100302.47;5136078;27;19951;-78
2022/04/03 03:55:45;;;;;;;;;;;;;;;-1.82;100.00;100299.00;5117950;27;19919;-78
2022/04/03 03:58:11;;;;;;;;;;;;;;;-1.85;100.00;100303.00;5117714;27;19922;-78
2022/04/03 04:00:37;;;;;;;;;;;;;;;-1.92;100.00;100304.22;5117175;27;19926;-78
2022/04/03 04:03:04;;;;;;;;;;;;;;;-1.88;100.00;100300.19;5117927;27;19915;-78
2022/04/03 04:05:29;;;;;;;;;;;;;;;-1.92;100.00;100304.22;5118155;27;19926;-78
2022/04/03 04:07:54;;;;;;;;;;;;;;;-1.91;100.00;100300.88;5117298;27;20003;-78
2022/04/03 04:10:21;;;;;;;;;;;;;;;-1.95;100.00;100298.84;5117542;27;20011;-78
2022/04/03 04:12:50;;;;;;;;;;;;;;;-2.00;100.00;100310.50;5136051;27;19915;-78
2022/04/03 04:15:15;;;;;;;;;;;;;;;-2.01;100.00;100319.00;5135110;27;19972;-78
2022/04/03 04:17:42;;;;;;;;;;;;;;;-2.05;100.00;100320.47;5117517;27;19919;-78
2022/04/03 04:20:11;;;;;;;;;;;;;;;-2.08;100.00;100329.63;5117512;27;19992;-78
2022/04/03 04:22:37;;;;;;;;;;;;;;;-2.11;100.00;100321.63;5117854;27;19915;-78
2022/04/03 04:25:04;;;;;;;;;;;;;;;-2.18;100.00;100328.91;5135245;27;19915;-76
2022/04/03 04:27:30;;;;;;;;;;;;;;;-2.22;100.00;100319.16;5114852;27;19920;-76
2022/04/03 04:29:55;;;;;;;;;;;;;;;-2.16;100.00;100334.19;5116781;27;19984;-75
2022/04/03 04:32:21;;;;;;;;;;;;;;;-2.12;100.00;100330.19;5100574;27;20370;-78
2022/04/03 04:34:56;;;;;;;;;;;;;;;-2.08;100.00;100332.19;5135587;27;20389;-76
2022/04/03 04:37:21;;;;;;;;;;;;;;;-2.09;100.00;100320.09;5100173;27;20014;-76
2022/04/03 04:39:46;;;;;;;;;;;;;;;-2.09;100.00;100335.59;5116646;27;19966;-77
2022/04/03 04:42:12;;;;;;;;;;;;;;;-2.05;100.00;100332.44;5099947;27;19927;-76
2022/04/03 04:44:39;;;;;;;;;;;;;;;-2.03;100.00;100336.06;5116827;27;19923;-77
2022/04/03 04:47:05;;;;;;;;;;;;;;;-2.02;100.00;100337.84;5082288;28;19931;-76
2022/04/03 04:49:30;;;;;;;;;;;;;;;-2.05;100.00;100337.59;5095415;28;19916;-77
2022/04/03 04:51:55;;;;;;;;;;;;;;;-2.09;100.00;100336.47;5130549;27;19915;-77
2022/04/03 04:54:25;;;;;;;;;;;;;;;-2.10;100.00;100333.75;5116554;27;20344;-76
2022/04/03 04:56:51;;;;;;;;;;;;;;;-2.14;100.00;100337.81;5115593;27;19998;-76
2022/04/03 04:59:17;;;;;;;;;;;;;;;-2.17;100.00;100334.97;5116291;27;19919;-76
2022/04/03 05:01:42;;;;;;;;;;;;;;;-2.20;100.00;100335.63;5116948;27;19922;-77
2022/04/03 05:04:07;;;;;;;;;;;;;;;-2.21;100.00;100336.41;5115922;27;19920;-75
2022/04/03 05:06:34;;;;;;;;;;;;;;;-2.23;100.00;100339.66;5115595;27;20015;-76
2022/04/03 05:08:59;;;;;;;;;;;;;;;-2.24;100.00;100335.25;5115965;27;19915;-77
2022/04/03 05:11:25;;;;;;;;;;;;;;;-2.22;100.00;100339.78;5116170;27;20344;-76
2022/04/03 05:13:52;;;;;;;;;;;;;;;-2.20;100.00;100342.47;5116015;27;19915;-78
2022/04/03 05:16:17;;;;;;;;;;;;;;;-2.21;100.00;100332.94;5116477;27;19967;-77
2022/04/03 05:18:43;;;;;;;;;;;;;;;-2.21;100.00;100340.66;5116423;27;20261;-77
2022/04/03 05:21:09;;;;;;;;;;;;;;;-2.18;100.00;100334.06;5115109;27;19931;-75
2022/04/03 05:23:38;;;;;;;;;;;;;;;-2.17;100.00;100330.72;5116025;27;19939;-77
2022/04/03 05:26:03;;;;;;;;;;;;;;;-2.13;100.00;100318.94;5114612;28;19922;-77
2022/04/03 05:28:29;;;;;;;;;;;;;;;-2.08;100.00;100319.28;5133322;27;19916;-77
2022/04/03 05:30:54;;;;;;;;;;;;;;;-2.04;100.00;100319.66;5115757;27;20248;-76
2022/04/03 05:33:20;;;;;;;;;;;;;;;-1.93;100.00;100307.59;5115392;27;19916;-76
2022/04/03 05:35:45;;;;;;;;;;;;;;;-1.35;100.00;100280.13;5114320;27;19957;-76
2022/04/03 05:38:11;;;;;;;;;;;;;;;-0.19;100.00;100213.31;5115424;27;19926;-76
2022/04/03 05:40:36;;;;;;;;;;;;;;;0.96;100.00;100142.25;5096795;28;20025;-76
2022/04/03 05:43:08;;;;;;;;;;;;;;;1.90;100.00;100101.25;5112470;28;20011;-77
2022/04/03 05:45:33;;;;;;;;;;;;;;;2.82;100.00;100043.16;5095213;28;19916;-77
2022/04/03 05:47:59;;;;;;;;;;;;;;;3.53;100.00;100035.56;5094854;28;19916;-77
2022/04/03 05:50:24;;;;;;;;;;;;;;;4.30;100.00;100018.50;5113293;28;19961;-76
2022/04/03 05:52:50;;;;;;;;;;;;;;;4.52;100.00;100061.22;5094431;28;19985;-77
2022/04/03 05:55:19;;;;;;;;;;;;;;;4.93;100.00;100132.72;5094311;28;20002;-76
2022/04/03 05:57:49;;;;;;;;;;;;;;;5.24;100.00;100437.84;5093948;28;20364;-77
2022/04/03 06:00:15;;;;;;;;;;;;;;;5.11;100.00;100944.41;5094912;28;19916;-77
2022/04/03 06:02:48;;;;;;;;;;;;;;;4.98;100.00;101021.06;5094818;28;19973;-77
2022/04/03 06:05:14;;;;;;;;;;;;;;;5.09;100.00;101134.88;5094321;28;19927;-77
2022/04/03 06:07:39;;;;;;;;;;;;;;;5.63;100.00;101190.44;5112342;28;19920;-77
2022/04/03 06:10:04;;;;;;;;;;;;;;;6.28;100.00;101293.72;5094324;28;19926;-77
2022/04/03 06:12:30;;;;;;;;;;;;;;;6.92;100.00;101372.53;5094998;28;19975;-76
2022/04/03 06:14:56;;;;;;;;;;;;;;;7.92;100.00;101503.19;5112377;28;19926;-76
2022/04/03 06:17:22;;;;;;;;;;;;;;;8.05;100.00;101610.63;5112207;28;20014;-77
2022/04/03 06:19:49;;;;;;;;;;;;;;;8.10;100.00;101681.72;5112805;28;20338;-77
2022/04/03 06:22:14;;;;;;;;;;;;;;;8.38;100.00;101720.09;5094316;28;19977;-77
2022/04/03 06:24:42;;;;;;;;;;;;;;;8.41;100.00;101751.75;5093826;28;19923;-77
2022/04/03 06:27:07;;;;;;;;;;;;;;;8.51;100.00;101796.13;5094046;28;19921;-77
2022/04/03 06:29:32;;;;;;;;;;;;;;;8.78;100.00;101809.09;5094602;28;20033;-77
2022/04/03 06:31:58;;;;;;;;;;;;;;;9.19;100.00;101826.34;5094182;28;19924;-77
2022/04/03 06:34:26;;;;;;;;;;;;;;;9.11;100.00;101865.31;5112380;28;19916;-77
2022/04/03 06:36:52;;;;;;;;;;;;;;;9.36;100.00;101878.97;5093633;28;19920;-77
2022/04/03 06:39:18;;;;;;;;;;;;;;;9.34;100.00;101900.81;5114346;28;19919;-77
2022/04/03 06:41:43;;;;;;;;;;;;;;;9.37;100.00;101920.19;5115290;28;20343;-77
2022/04/03 06:44:10;;;;;;;;;;;;;;;10.23;100.00;101952.25;5097550;28;19923;-77
2022/04/03 06:46:35;;;;;;;;;;;;;;;10.22;100.00;102004.81;5098597;28;19962;-77
2022/04/03 06:49:01;;;;;;;;;;;;;;;10.60;100.00;102027.16;5116023;28;19959;-78
2022/04/03 06:51:26;;;;;;;;;;;;;;;10.12;100.00;102027.09;5097298;28;19923;-78
2022/04/03 06:53:54;;;;;;;;;;;;;;;9.49;100.00;102011.22;5097961;28;20407;-77
2022/04/03 06:56:22;;;;;;;;;;;;;;;8.81;100.00;102006.25;5097615;28;19916;-78
2022/04/03 06:58:47;;;;;;;;;;;;;;;8.36;100.00;101971.94;5080530;28;19924;-78
2022/04/03 07:01:13;;;;;;;;;;;;;;;8.11;100.00;101943.25;5114667;28;19941;-77
2022/04/03 07:03:38;;;;;;;;;;;;;;;8.22;100.00;101955.34;5097407;28;20402;-77
2022/04/03 07:06:05;;;;;;;;;;;;;;;8.68;100.00;101977.41;5097260;28;19998;-77
2022/04/03 07:08:31;;;;;;;;;;;;;;;9.26;100.00;102054.53;5115221;28;19915;-77
2022/04/03 07:10:57;;;;;;;;;;;;;;;9.31;100.00;102089.88;5080339;28;19924;-77
2022/04/03 07:13:24;;;;;;;;;;;;;;;9.93;100.00;102118.94;5096912;28;19930;-77
2022/04/03 07:15:49;;;;;;;;;;;;;;;9.88;100.00;102153.81;5097318;28;19927;-78
2022/04/03 07:18:16;;;;;;;;;;;;;;;9.45;100.00;102151.19;5114939;28;19916;-77
2022/04/03 07:20:42;;;;;;;;;;;;;;;8.74;100.00;102144.16;5097375;28;19916;-77
2022/04/03 07:23:09;;;;;;;;;;;;;;;8.75;100.00;102153.84;5097261;28;19915;-77
2022/04/03 07:25:34;;;;;;;;;;;;;;;9.06;100.00;102144.34;5097347;28;19962;-78
2022/04/03 07:27:59;;;;;;;;;;;;;;;8.81;100.00;102161.22;5096923;28;19962;-77
2022/04/03 07:30:24;;;;;;;;;;;;;;;8.36;100.00;102153.03;5097464;28;19923;-77
2022/04/03 07:32:51;;;;;;;;;;;;;;;8.42;100.00;102163.94;5096714;28;19920;-77
2022/04/03 07:35:16;;;;;;;;;;;;;;;7.23;100.00;102122.66;5097110;28;19923;-77
2022/04/03 07:37:42;;;;;;;;;;;;;;;7.48;100.00;102085.97;5115607;28;19919;-77
2022/04/03 07:40:08;;;;;;;;;;;;;;;7.67;100.00;102094.25;5096271;28;19927;-77
2022/04/03 07:42:34;;;;;;;;;;;;;;;7.61;100.00;102104.31;5115368;28;19930;-78
2022/04/03 07:44:59;;;;;;;;;;;;;;;7.61;100.00;102103.41;5096668;28;19916;-77
2022/04/03 07:47:25;;;;;;;;;;;;;;;7.15;100.00;102096.84;5096253;28;19916;-77
2022/04/03 07:49:50;;;;;;;;;;;;;;;7.49;100.00;102108.75;5095897;28;19930;-77
2022/04/03 07:52:16;;;;;;;;;;;;;;;8.09;100.00;102113.69;5096528;28;20014;-77
2022/04/03 07:54:41;;;;;;;;;;;;;;;8.91;100.00;102157.47;5114851;28;19924;-78
2022/04/03 07:57:06;;;;;;;;;;;;;;;9.43;100.00;102196.59;5096894;28;20367;-78
2022/04/03 07:59:32;;;;;;;;;;;;;;;9.33;100.00;102217.06;5097007;28;20060;-76
2022/04/03 08:01:58;;;;;;;;;;;;;;;10.04;100.00;102258.25;5095209;28;19924;-76
2022/04/03 08:04:25;;;;;;;;;;;;;;;10.61;100.00;102287.06;5080041;28;20027;-78
2022/04/03 08:06:50;;;;;;;;;;;;;;;10.11;100.00;102287.56;5114353;28;19997;-76
2022/04/03 08:09:16;;;;;;;;;;;;;;;9.30;100.00;102289.56;5096438;28;19915;-77
2022/04/03 08:11:42;;;;;;;;;;;;;;;10.01;100.00;102280.84;5076218;28;20399;-76
2022/04/03 08:14:09;;;;;;;;;;;;;;;10.67;100.00;102294.44;5095608;28;19916;-76
2022/04/03 08:16:34;;;;;;;;;;;;;;;9.93;100.00;102304.06;5095525;28;19955;-76
2022/04/03 08:19:02;;;;;;;;;;;;;;;10.50;100.00;102288.19;5096207;28;19986;-75
2022/04/03 08:21:28;;;;;;;;;;;;;;;10.71;100.00;102315.78;5108332;28;19973;-77
2022/04/03 08:23:53;;;;;;;;;;;;;;;9.74;100.00;102309.91;5077877;28;20625;-77
2022/04/03 08:26:19;;;;;;;;;;;;;;;9.64;100.00;102295.25;5096023;28;19915;-76
2022/04/03 08:28:44;;;;;;;;;;;;;;;8.87;100.00;102268.38;5095999;28;19920;-77
2022/04/03 08:31:10;;;;;;;;;;;;;;;8.30;100.00;102228.75;5095879;28;20007;-77
2022/04/03 08:33:35;;;;;;;;;;;;;;;8.17;100.00;102215.59;5079102;28;19921;-77
2022/04/03 08:36:03;;;;;;;;;;;;;;;7.98;100.00;102179.34;5113389;28;19916;-76
2022/04/03 08:38:28;;;;;;;;;;;;;;;8.46;100.00;102191.34;5095843;28;19923;-76
2022/04/03 08:40:53;;;;;;;;;;;;;;;8.51;100.00;102194.25;5091956;28;19920;-76
2022/04/03 08:43:19;;;;;;;;;;;;;;;8.19;100.00;102196.53;5095440;28;19920;-77
2022/04/03 08:45:44;;;;;;;;;;;;;;;8.02;100.00;102197.13;5096008;28;19915;-76
2022/04/03 08:48:10;;;;;;;;;;;;;;;7.58;100.00;102158.25;5078549;28;19977;-78
2022/04/03 08:50:37;;;;;;;;;;;;;;;7.75;100.00;102159.41;5113892;28;19920;-76
2022/04/03 08:53:06;;;;;;;;;;;;;;;8.18;100.00;102178.97;5096121;28;19915;-78
2022/04/03 08:55:31;;;;;;;;;;;;;;;8.66;100.00;102213.66;5095939;28;19920;-76
2022/04/03 08:57:57;;;;;;;;;;;;;;;9.41;100.00;102235.94;5113959;28;19916;-77
2022/04/03 09:00:22;;;;;;;;;;;;;;;9.89;100.00;102263.47;5095872;28;19927;-77
2022/04/03 09:02:50;;;;;;;;;;;;;;;10.20;100.00;102257.44;5095664;28;20316;-77
2022/04/03 09:05:15;;;;;;;;;;;;;;;9.29;100.00;102285.13;5111606;28;19931;-76
2022/04/03 09:07:41;;;;;;;;;;;;;;;9.17;100.00;102256.34;5095929;28;19920;-75
2022/04/03 09:10:06;;;;;;;;;;;;;;;8.88;100.00;102241.31;5094158;28;19927;-76
2022/04/03 09:12:31;;;;;;;;;;;;;;;8.39;100.00;102173.31;5094583;28;20571;-78
2022/04/03 09:15:11;;;;;;;;;;;;;;;7.87;100.00;102162.88;5113278;28;19920;-76
2022/04/03 09:17:44;;;;;;;;;;;;;;;7.34;100.00;102125.22;5096085;28;19973;-79
2022/04/03 09:20:12;;;;;;;;;;;;;;;7.06;100.00;102105.78;5095138;28;19920;-80
2022/04/03 09:22:38;;;;;;;;;;;;;;;6.72;100.00;102111.22;5096002;28;19920;-80
2022/04/03 09:25:06;;;;;;;;;;;;;;;6.75;100.00;102059.09;5095604;28;19923;-80
2022/04/03 09:27:35;;;;;;;;;;;;;;;6.69;100.00;102072.63;5078556;28;19919;-79
2022/04/03 09:30:05;;;;;;;;;;;;;;;6.66;100.00;102072.41;5095649;28;19915;-80
2022/04/03 09:32:30;;;;;;;;;;;;;;;6.52;100.00;102088.84;5095840;28;20018;-80
2022/04/03 09:34:58;;;;;;;;;;;;;;;6.62;100.00;102044.22;5079129;28;19967;-79
2022/04/03 09:37:23;;;;;;;;;;;;;;;6.57;100.00;102024.66;5095850;28;19961;-80
2022/04/03 09:39:49;;;;;;;;;;;;;;;6.59;100.00;102008.28;5095481;28;19932;-79
2022/04/03 09:42:15;;;;;;;;;;;;;;;6.98;100.00;102034.53;5113448;28;19916;-80
2022/04/03 09:44:42;;;;;;;;;;;;;;;7.15;100.00;102040.94;5095675;28;19971;-80
2022/04/03 09:47:14;;;;;;;;;;;;;;;7.60;100.00;102049.16;5095788;28;19961;-80
2022/04/03 09:49:53;;;;;;;;;;;;;;;7.85;100.00;102086.72;5095947;28;19924;-79
2022/04/03 09:52:38;;;;;;;;;;;;;;;8.09;100.00;102116.31;5095532;28;19923;-80
2022/04/03 09:55:07;;;;;;;;;;;;;;;8.17;100.00;102139.50;5095327;28;19987;-80
2022/04/03 09:57:32;;;;;;;;;;;;;;;7.69;100.00;102047.16;5114015;28;19923;-79
2022/04/03 09:59:58;;;;;;;;;;;;;;;7.32;100.00;101997.53;5113278;28;19920;-78
2022/04/03 10:02:24;;;;;;;;;;;;;;;7.39;100.00;101976.16;5095587;28;20362;-80
2022/04/03 10:04:53;;;;;;;;;;;;;;;7.35;100.00;101955.81;5094925;28;20299;-78
2022/04/03 10:07:20;;;;;;;;;;;;;;;7.59;100.00;101959.13;5095172;28;19928;-79
2022/04/03 10:09:49;;;;;;;;;;;;;;;7.65;100.00;101990.09;5095417;28;19920;-78
2022/04/03 10:12:16;;;;;;;;;;;;;;;7.57;100.00;102012.25;5113479;28;19916;-78
2022/04/03 10:14:44;;;;;;;;;;;;;;;7.56;100.00;102011.38;5098352;28;19923;-79
2022/04/03 10:17:10;;;;;;;;;;;;;;;7.55;100.00;102054.09;5117643;28;19920;-78
2022/04/03 10:19:35;;;;;;;;;;;;;;;7.52;100.00;102035.56;5099314;28;20413;-78
2022/04/03 10:22:01;;;;;;;;;;;;;;;7.51;100.00;102063.47;5098118;28;19920;-78
2022/04/03 10:24:29;;;;;;;;;;;;;;;7.41;100.00;102082.03;5099507;28;19923;-79
2022/04/03 10:27:14;;;;;;;;;;;;;;;7.38;100.00;102063.47;5099178;28;20026;-78
2022/04/03 10:29:40;;;;;;;;;;;;;;;7.66;100.00;102063.63;5098763;28;19912;-78
2022/04/03 10:32:06;;;;;;;;;;;;;;;7.68;100.00;102103.03;5098582;28;19916;-79
2022/04/03 10:34:56;;;;;;;;;;;;;;;7.89;100.00;102114.06;5098014;28;19965;-77
2022/04/03 10:37:24;;;;;;;;;;;;;;;7.91;100.00;102107.22;5096257;28;19920;-79
2022/04/03 10:40:02;;;;;;;;;;;;;;;7.89;100.00;102098.31;5082392;28;19955;-77
2022/04/03 10:42:28;;;;;;;;;;;;;;;7.91;100.00;102083.63;5098524;28;19922;-78
2022/04/03 10:45:11;;;;;;;;;;;;;;;8.18;100.00;102126.50;5116037;28;19916;-76
2022/04/03 10:47:40;;;;;;;;;;;;;;;8.26;100.00;102122.69;5098468;28;19967;-78
2022/04/03 10:50:06;;;;;;;;;;;;;;;8.09;100.00;102141.63;5097862;28;19923;-76
2022/04/03 10:52:37;;;;;;;;;;;;;;;7.89;100.00;102154.31;5098312;28;20386;-78
2022/04/03 10:55:20;;;;;;;;;;;;;;;7.69;100.00;102124.13;5115953;28;19995;-78
2022/04/03 10:57:49;;;;;;;;;;;;;;;7.59;100.00;102110.28;5098045;28;19922;-78
2022/04/03 11:00:15;;;;;;;;;;;;;;;7.57;100.00;102101.38;5098252;28;19916;-78
2022/04/03 11:02:49;;;;;;;;;;;;;;;7.62;100.00;102094.75;5098356;28;20351;-78
2022/04/03 11:05:20;;;;;;;;;;;;;;;7.53;100.00;102111.66;5098003;28;19922;-78
2022/04/03 11:07:46;;;;;;;;;;;;;;;7.37;100.00;102100.94;5098082;28;19972;-79
2022/04/03 11:10:11;;;;;;;;;;;;;;;7.50;100.00;102079.09;5116268;28;20010;-78
2022/04/03 11:12:43;;;;;;;;;;;;;;;7.54;100.00;102070.66;5098642;28;20279;-77
2022/04/03 11:15:12;;;;;;;;;;;;;;;7.14;100.00;101998.09;5092734;28;20065;-78
2022/04/03 11:17:48;;;;;;;;;;;;;;;7.08;100.00;101947.91;5081590;28;19919;-78
2022/04/03 11:20:33;;;;;;;;;;;;;;;7.08;100.00;101899.84;5113521;28;19926;-78
2022/04/03 11:23:01;;;;;;;;;;;;;;;7.05;100.00;101821.06;5082229;28;19998;-78
2022/04/03 11:25:26;;;;;;;;;;;;;;;7.13;100.00;101781.50;5105866;28;20383;-79
2022/04/03 11:27:51;;;;;;;;;;;;;;;7.32;100.00;101762.63;5098243;28;19926;-78
2022/04/03 11:30:19;;;;;;;;;;;;;;;7.69;100.00;101771.88;5116154;28;20022;-78
2022/04/03 11:32:45;;;;;;;;;;;;;;;7.85;100.00;101786.88;5098201;28;20068;-78
2022/04/03 11:35:10;;;;;;;;;;;;;;;8.08;100.00;101806.66;5097860;28;19920;-79
2022/04/03 11:37:36;;;;;;;;;;;;;;;8.72;100.00;101840.25;5115921;28;19925;-78
2022/04/03 11:40:04;;;;;;;;;;;;;;;8.87;100.00;101904.19;5096832;28;19967;-77
2022/04/03 11:42:29;;;;;;;;;;;;;;;8.98;100.00;101946.88;5096586;28;20430;-79
2022/04/03 11:44:58;;;;;;;;;;;;;;;9.12;100.00;101992.34;5080495;28;20374;-79
2022/04/03 11:47:24;;;;;;;;;;;;;;;8.94;100.00;102023.66;5096886;28;19920;-75
2022/04/03 11:50:03;;;;;;;;;;;;;;;8.74;100.00;101993.56;5097263;28;19970;-77
2022/04/03 11:52:28;;;;;;;;;;;;;;;8.61;100.00;101984.91;5080339;28;20018;-77
2022/04/03 11:54:55;;;;;;;;;;;;;;;8.68;100.00;101993.16;5096923;28;20347;-78
2022/04/03 11:57:21;;;;;;;;;;;;;;;8.53;100.00;102007.16;5097549;28;19926;-78
2022/04/03 11:59:46;;;;;;;;;;;;;;;8.92;100.00;102013.06;5116111;28;20003;-78
2022/04/03 12:02:13;;;;;;;;;;;;;;;8.89;100.00;102036.53;5097047;28;19926;-79
2022/04/03 12:04:40;;;;;;;;;;;;;;;8.85;100.00;102071.28;5097620;28;19977;-78
2022/04/03 12:07:05;;;;;;;;;;;;;;;9.34;100.00;102032.25;5096243;28;20636;-77
2022/04/03 12:09:32;;;;;;;;;;;;;;;8.93;100.00;102021.84;5097202;28;19920;-77
2022/04/03 12:12:04;;;;;;;;;;;;;;;8.67;100.00;102054.38;5114563;28;19920;-77
2022/04/03 12:14:32;;;;;;;;;;;;;;;8.41;100.00;102092.97;5096978;28;19930;-78
2022/04/03 12:17:01;;;;;;;;;;;;;;;8.40;100.00;102080.66;5096780;28;19920;-79
2022/04/03 12:19:27;;;;;;;;;;;;;;;8.74;100.00;102111.72;5080497;28;20006;-78
2022/04/03 12:21:57;;;;;;;;;;;;;;;8.95;100.00;102126.22;5114579;28;20397;-75
2022/04/03 12:24:23;;;;;;;;;;;;;;;8.63;100.00;102100.53;5096822;28;19916;-80
2022/04/03 12:26:49;;;;;;;;;;;;;;;8.73;100.00;102108.22;5096997;28;19920;-79
2022/04/03 12:29:14;;;;;;;;;;;;;;;8.71;100.00;102107.19;5096785;28;20006;-77
2022/04/03 12:31:40;;;;;;;;;;;;;;;9.08;100.00;102112.13;5097181;28;20032;-79